Time;durP1;ratioP1;P1;durP2;ratioP2;P2;SDS_P1;SDS_P2;PMS_P1;PMS_P2;Temp;Humidity;BMP_temperature;BMP_pressure;BME280_temperature;BME280_humidity;BME280_pressure;Samples;Min_cycle;Max_cycle;Signal;HPM_P1;HPM_P2
2022/01/15 00:00:36;;;;;;;2.08;0.75;;;5.80;99.90;;;;;;4950380;28;20157;-64
2022/01/15 00:03:07;;;;;;;2.28;0.90;;;5.80;99.90;;;;;;4968830;28;20420;-64
2022/01/15 00:05:34;;;;;;;5.20;1.08;;;5.80;99.90;;;;;;4967643;28;20047;-64
2022/01/15 00:08:02;;;;;;;5.30;1.00;;;5.80;99.90;;;;;;4951507;28;20467;-64
2022/01/15 00:10:29;;;;;;;2.97;0.88;;;5.80;99.90;;;;;;4970984;28;20044;-64
2022/01/15 00:12:58;;;;;;;3.15;1.02;;;5.80;99.90;;;;;;4967376;28;20892;-64
2022/01/15 00:15:28;;;;;;;4.85;1.10;;;5.80;99.90;;;;;;4968026;28;20047;-64
2022/01/15 00:18:40;;;;;;;7.10;1.13;;;5.80;99.90;;;;;;4964713;28;20138;-64
2022/01/15 00:20:46;;;;;;;1.75;1.00;;;5.80;99.90;;;;;;4959888;28;20536;-64
2022/01/15 00:23:12;;;;;;;3.05;1.10;;;5.80;99.90;;;;;;4966338;28;20047;-63
2022/01/15 00:25:37;;;;;;;4.75;1.17;;;5.80;99.90;;;;;;4968140;28;20468;-64
2022/01/15 00:28:03;;;;;;;2.97;1.10;;;5.80;99.90;;;;;;4951147;28;20125;-64
2022/01/15 00:30:29;;;;;;;3.20;1.15;;;5.80;99.90;;;;;;4968432;28;20078;-64
2022/01/15 00:32:55;;;;;;;2.22;1.10;;;5.80;99.90;;;;;;4967651;28;20057;-64
2022/01/15 00:35:23;;;;;;;3.08;1.20;;;5.80;99.90;;;;;;4934330;28;20074;-64
2022/01/15 00:37:49;;;;;;;6.50;1.80;;;5.70;99.90;;;;;;4968158;28;20051;-64
2022/01/15 00:40:18;;;;;;;1.85;1.10;;;5.70;99.90;;;;;;4968090;28;20093;-65
2022/01/15 00:42:44;;;;;;;6.65;1.80;;;5.70;99.90;;;;;;4967743;28;20046;-64
2022/01/15 00:45:17;;;;;;;2.47;1.40;;;5.70;99.90;;;;;;4967948;28;20077;-64
2022/01/15 00:47:43;;;;;;;7.20;1.20;;;5.70;99.90;;;;;;4966723;28;20070;-64
2022/01/15 00:50:09;;;;;;;4.63;1.50;;;5.70;99.90;;;;;;4971112;28;20473;-64
2022/01/15 00:52:35;;;;;;;5.07;1.77;;;5.60;99.90;;;;;;4966884;28;20042;-64
2022/01/15 00:55:02;;;;;;;3.00;1.63;;;5.60;99.90;;;;;;4950759;28;20050;-64
2022/01/15 00:57:28;;;;;;;5.50;1.75;;;5.70;99.90;;;;;;4969587;28;20121;-64
2022/01/15 00:59:53;;;;;;;5.97;1.73;;;5.70;99.90;;;;;;4982624;28;20445;-64
2022/01/15 01:02:19;;;;;;;10.23;2.20;;;5.70;99.90;;;;;;4978802;28;20079;-64
2022/01/15 01:04:45;;;;;;;7.70;2.00;;;5.60;99.90;;;;;;4983001;28;20489;-64
2022/01/15 01:07:11;;;;;;;4.82;1.90;;;5.70;99.90;;;;;;4985416;28;20042;-63
2022/01/15 01:23:37;;;;;;;12.70;2.20;;;5.70;99.90;;;;;;4945914;28;20472;-63
2022/01/15 01:26:43;;;;;;;8.50;2.00;;;5.70;99.90;;;;;;4962397;28;20356;-64
2022/01/15 01:29:07;;;;;;;3.38;1.92;;;5.70;99.90;;;;;;4984000;28;20057;-64
2022/01/15 01:31:41;;;;;;;7.07;2.10;;;5.70;99.90;;;;;;4980453;28;20042;-64
2022/01/15 01:34:11;;;;;;;4.45;1.95;;;5.70;99.90;;;;;;4986971;28;20460;-64
2022/01/15 01:39:23;;;;;;;5.28;2.22;;;5.60;99.90;;;;;;4985461;28;20051;-64
2022/01/15 01:44:42;;;;;;;3.45;1.80;;;5.60;99.90;;;;;;4951431;28;20050;-64
2022/01/15 01:47:26;;;;;;;3.10;2.25;;;5.60;99.90;;;;;;4985371;28;20046;-64
2022/01/15 01:49:52;;;;;;;6.80;2.88;;;5.60;99.90;;;;;;4985413;28;20042;-64
2022/01/15 01:52:17;;;;;;;4.88;2.70;;;5.70;99.90;;;;;;4987232;28;20118;-64
2022/01/15 01:54:43;;;;;;;4.88;2.80;;;5.60;99.90;;;;;;4988150;28;20050;-64
2022/01/15 01:57:09;;;;;;;10.15;3.60;;;5.60;99.90;;;;;;4983190;28;20047;-64
2022/01/15 01:59:37;;;;;;;13.38;3.10;;;5.70;99.90;;;;;;4964221;28;20129;-64
2022/01/15 02:02:03;;;;;;;6.65;2.65;;;5.70;99.90;;;;;;4969538;28;20105;-64
2022/01/15 02:04:29;;;;;;;11.27;3.60;;;5.70;99.90;;;;;;4986041;28;20151;-64
2022/01/15 02:06:55;;;;;;;13.15;3.80;;;5.70;99.90;;;;;;4987643;28;20066;-64
2022/01/15 02:09:23;;;;;;;9.30;3.28;;;5.70;99.90;;;;;;4968156;28;20493;-64
2022/01/15 02:11:48;;;;;;;6.40;2.70;;;5.70;99.90;;;;;;4987285;28;20125;-64
2022/01/15 02:14:30;;;;;;;6.10;2.88;;;5.70;99.90;;;;;;4982543;28;20177;-64
2022/01/15 02:16:57;;;;;;;4.82;2.50;;;5.70;99.90;;;;;;4989306;28;20550;-64
2022/01/15 02:19:44;;;;;;;8.93;3.05;;;5.70;99.90;;;;;;4968566;28;20080;-64
2022/01/15 02:24:54;;;;;;;15.13;3.65;;;5.70;99.90;;;;;;4979356;28;20113;-63
2022/01/15 02:27:20;;;;;;;25.67;4.13;;;5.70;99.90;;;;;;4951978;28;20051;-64
2022/01/15 02:29:46;;;;;;;13.30;4.30;;;5.70;99.90;;;;;;4969930;28;20121;-64
2022/01/15 02:32:11;;;;;;;21.90;4.90;;;5.70;99.90;;;;;;4935840;28;20544;-64
2022/01/15 02:34:37;;;;;;;215.85;7.22;;;5.70;99.90;;;;;;4970786;28;20604;-64
2022/01/15 02:37:03;;;;;;;189.27;6.32;;;5.70;99.90;;;;;;4969737;28;20035;-64
2022/01/15 02:39:28;;;;;;;210.95;6.20;;;5.60;99.90;;;;;;4953522;28;20485;-64
2022/01/15 02:41:54;;;;;;;110.47;5.22;;;5.60;99.90;;;;;;4954819;28;20125;-64
2022/01/15 02:44:20;;;;;;;163.65;5.20;;;5.70;99.90;;;;;;4974483;28;20038;-64
2022/01/15 02:49:16;;;;;;;169.50;6.15;;;5.60;99.90;;;;;;4968408;28;20075;-64
2022/01/15 02:51:42;;;;;;;105.10;4.80;;;5.60;99.90;;;;;;4969969;28;20142;-64
2022/01/15 02:54:08;;;;;;;63.95;3.80;;;5.60;99.90;;;;;;4967611;28;20480;-64
2022/01/15 02:56:40;;;;;;;60.33;4.00;;;5.60;99.90;;;;;;4968922;28;20070;-64
2022/01/15 02:59:08;;;;;;;92.32;3.97;;;5.60;99.90;;;;;;4960444;28;20047;-64
2022/01/15 03:01:34;;;;;;;133.80;4.65;;;5.60;99.90;;;;;;4949566;28;20147;-64
2022/01/15 03:04:00;;;;;;;32.67;3.70;;;5.60;99.90;;;;;;4950770;28;20055;-64
2022/01/15 03:06:26;;;;;;;18.08;3.47;;;5.60;99.90;;;;;;4949084;28;20047;-64
2022/01/15 03:08:53;;;;;;;21.63;3.47;;;5.60;99.90;;;;;;4950947;28;20052;-64
2022/01/15 03:11:19;;;;;;;27.17;4.03;;;5.60;99.90;;;;;;4944681;29;20046;-64
2022/01/15 03:13:45;;;;;;;70.60;4.40;;;5.60;99.90;;;;;;4950999;28;20046;-64
2022/01/15 03:16:15;;;;;;;46.83;4.22;;;5.60;99.90;;;;;;4954347;28;20117;-64
2022/01/15 03:18:41;;;;;;;13.52;3.05;;;5.60;99.90;;;;;;4951957;28;20116;-64
2022/01/15 03:21:07;;;;;;;5.32;2.67;;;5.60;99.90;;;;;;4946757;28;20051;-64
2022/01/15 03:23:33;;;;;;;10.25;2.53;;;5.60;99.90;;;;;;4968689;28;20540;-64
2022/01/15 03:25:59;;;;;;;34.08;3.45;;;5.60;99.90;;;;;;4969662;28;20046;-64
2022/01/15 03:28:25;;;;;;;10.98;3.92;;;5.60;99.90;;;;;;4951008;28;20117;-64
2022/01/15 03:30:51;;;;;;;6.15;3.00;;;5.60;99.90;;;;;;4969555;28;20181;-64
2022/01/15 03:33:17;;;;;;;11.35;3.45;;;5.60;99.90;;;;;;4965258;28;20126;-63
2022/01/15 03:35:45;;;;;;;9.63;3.63;;;5.60;99.90;;;;;;4968891;28;20125;-64
2022/01/15 03:38:11;;;;;;;33.10;3.90;;;5.60;99.90;;;;;;4968895;28;20173;-64
2022/01/15 03:40:37;;;;;;;95.35;4.90;;;5.60;99.90;;;;;;4951135;28;20135;-64
2022/01/15 03:43:04;;;;;;;128.85;6.10;;;5.60;99.90;;;;;;4969268;28;20523;-64
2022/01/15 03:45:30;;;;;;;199.98;6.50;;;5.60;99.90;;;;;;4965519;28;20542;-64
2022/01/15 03:47:59;;;;;;;127.13;6.28;;;5.60;99.90;;;;;;4946278;28;20047;-64
2022/01/15 03:50:25;;;;;;;55.83;4.97;;;5.60;99.90;;;;;;4968379;28;20031;-64
2022/01/15 03:52:52;;;;;;;12.93;4.20;;;5.60;99.90;;;;;;4951461;28;20125;-64
2022/01/15 03:55:18;;;;;;;28.08;4.90;;;5.60;99.90;;;;;;4968898;28;20274;-64
2022/01/15 03:57:44;;;;;;;6.88;3.60;;;5.60;99.90;;;;;;4967449;28;20039;-64
2022/01/15 04:00:13;;;;;;;8.57;3.55;;;5.50;99.90;;;;;;4984898;28;20108;-64
2022/01/15 04:02:41;;;;;;;10.60;4.28;;;5.60;99.90;;;;;;4980687;28;20041;-64
2022/01/15 04:05:08;;;;;;;11.55;3.65;;;5.60;99.90;;;;;;4988350;28;20081;-64
2022/01/15 04:07:34;;;;;;;7.55;4.03;;;5.60;99.90;;;;;;4986780;28;20050;-63
2022/01/15 04:09:59;;;;;;;8.20;4.00;;;5.60;99.90;;;;;;4987649;28;20050;-64
2022/01/15 04:12:25;;;;;;;7.60;4.30;;;5.60;99.90;;;;;;4953995;28;20489;-64
2022/01/15 04:14:51;;;;;;;10.40;4.90;;;5.60;99.90;;;;;;4968010;28;20045;-64
2022/01/15 04:17:16;;;;;;;9.73;4.78;;;5.60;99.90;;;;;;4980529;28;20504;-64
2022/01/15 04:19:42;;;;;;;7.63;4.50;;;5.60;99.90;;;;;;4950718;28;20069;-64
2022/01/15 04:22:08;;;;;;;14.05;5.07;;;5.50;99.90;;;;;;4967957;28;20104;-64
2022/01/15 04:24:34;;;;;;;12.38;4.95;;;5.60;99.90;;;;;;4983671;28;20046;-64
2022/01/15 04:26:59;;;;;;;11.63;4.10;;;5.50;99.90;;;;;;4980722;28;20209;-64
2022/01/15 04:29:25;;;;;;;13.75;4.80;;;5.50;99.90;;;;;;4986077;28;20108;-64
2022/01/15 04:31:51;;;;;;;11.52;4.32;;;5.50;99.90;;;;;;4952001;28;20047;-64
2022/01/15 04:34:27;;;;;;;12.20;4.65;;;5.50;99.90;;;;;;4953504;28;20137;-64
2022/01/15 04:37:01;;;;;;;15.07;5.57;;;5.50;99.90;;;;;;4955725;28;20054;-64
2022/01/15 04:39:28;;;;;;;12.63;5.22;;;5.50;99.90;;;;;;4987875;28;20511;-64
2022/01/15 04:41:53;;;;;;;11.27;4.25;;;5.50;99.90;;;;;;4968996;28;20100;-64
2022/01/15 04:44:19;;;;;;;22.20;5.90;;;5.50;99.90;;;;;;4983285;28;20050;-64
2022/01/15 04:46:45;;;;;;;15.88;4.25;;;5.50;99.90;;;;;;4985291;28;20041;-64
2022/01/15 04:49:11;;;;;;;24.30;3.58;;;5.40;99.90;;;;;;4977368;28;20570;-64
2022/01/15 04:51:37;;;;;;;26.65;5.18;;;5.40;99.90;;;;;;4987701;28;20058;-64
2022/01/15 04:54:04;;;;;;;20.73;6.30;;;5.30;99.90;;;;;;4960369;28;20087;-64
2022/01/15 04:56:30;;;;;;;16.65;5.80;;;5.30;99.90;;;;;;4962397;28;20043;-64
2022/01/15 04:58:57;;;;;;;17.42;5.53;;;5.20;99.90;;;;;;4986044;28;20054;-64
2022/01/15 05:01:23;;;;;;;12.98;4.88;;;5.20;99.90;;;;;;4983136;28;20125;-64
2022/01/15 05:03:49;;;;;;;7.82;4.10;;;5.30;99.90;;;;;;4985058;28;20049;-64
2022/01/15 05:06:15;;;;;;;8.98;3.97;;;5.30;99.90;;;;;;4979921;28;20527;-63
2022/01/15 05:08:42;;;;;;;6.07;3.50;;;5.30;99.90;;;;;;4999448;28;20053;-64
2022/01/15 05:11:26;;;;;;;10.27;3.00;;;5.30;99.90;;;;;;4963756;28;20496;-64
2022/01/15 05:13:52;;;;;;;3.85;2.50;;;5.40;99.90;;;;;;4966607;28;20042;-64
2022/01/15 05:16:17;;;;;;;3.33;2.95;;;5.40;99.90;;;;;;4985106;28;20508;-64
2022/01/15 05:18:43;;;;;;;9.07;2.78;;;5.40;99.90;;;;;;4987414;28;20082;-64
2022/01/15 05:21:09;;;;;;;15.95;3.30;;;5.40;99.90;;;;;;4961841;28;20047;-64
2022/01/15 05:23:35;;;;;;;13.93;4.93;;;5.40;99.90;;;;;;4990998;28;20638;-64
2022/01/15 05:26:01;;;;;;;13.88;4.30;;;5.40;99.90;;;;;;4990273;28;20038;-64
2022/01/15 05:28:26;;;;;;;9.40;4.40;;;5.40;99.90;;;;;;4960926;28;20043;-64
2022/01/15 05:30:52;;;;;;;9.23;3.53;;;5.40;99.90;;;;;;4957381;28;20057;-64
2022/01/15 05:33:18;;;;;;;16.17;4.35;;;5.40;99.90;;;;;;4988587;28;20116;-64
2022/01/15 05:35:44;;;;;;;9.77;4.22;;;5.40;99.90;;;;;;4974276;28;20042;-64
2022/01/15 05:38:10;;;;;;;13.85;5.30;;;5.40;99.90;;;;;;4983927;28;20504;-64
2022/01/15 05:40:36;;;;;;;13.85;4.93;;;5.40;99.90;;;;;;4957247;28;20054;-64
2022/01/15 05:43:02;;;;;;;13.60;4.38;;;5.40;99.90;;;;;;4973428;28;20046;-63
2022/01/15 05:45:29;;;;;;;9.80;5.07;;;5.30;99.90;;;;;;4988850;28;20049;-64
2022/01/15 05:47:55;;;;;;;13.43;5.22;;;5.30;99.90;;;;;;4990783;28;20606;-64
2022/01/15 05:50:21;;;;;;;15.70;5.78;;;5.30;99.90;;;;;;4989270;28;20038;-64
2022/01/15 05:52:47;;;;;;;9.90;4.75;;;5.20;99.90;;;;;;4991243;28;20046;-64
2022/01/15 05:55:13;;;;;;;16.73;5.10;;;5.40;99.90;;;;;;4985938;28;20049;-64
2022/01/15 05:57:39;;;;;;;12.93;4.90;;;5.30;99.90;;;;;;4981279;28;20061;-64
2022/01/15 06:00:07;;;;;;;8.50;4.07;;;5.30;99.90;;;;;;4989888;28;20503;-64
2022/01/15 06:02:33;;;;;;;12.13;4.20;;;5.30;99.90;;;;;;4965614;28;20649;-64
2022/01/15 06:04:58;;;;;;;15.65;3.97;;;5.30;99.90;;;;;;4990982;28;20081;-64
2022/01/15 06:07:24;;;;;;;16.20;4.90;;;5.30;99.90;;;;;;4979092;28;20047;-64
2022/01/15 06:09:50;;;;;;;8.82;4.20;;;5.30;99.90;;;;;;4990730;28;20154;-64
2022/01/15 06:12:16;;;;;;;14.57;5.00;;;5.30;99.90;;;;;;4957578;28;20039;-64
2022/01/15 06:14:41;;;;;;;13.88;5.20;;;5.30;99.90;;;;;;4973152;28;20073;-64
2022/01/15 06:17:10;;;;;;;21.38;6.60;;;5.30;99.90;;;;;;4988694;28;20049;-64
2022/01/15 06:19:37;;;;;;;17.85;6.35;;;5.30;99.90;;;;;;4972112;28;20052;-64
2022/01/15 06:22:03;;;;;;;13.38;5.63;;;5.30;99.90;;;;;;4990851;28;20101;-64
2022/01/15 06:24:30;;;;;;;12.38;5.68;;;5.30;99.90;;;;;;4988481;28;20050;-64
2022/01/15 06:26:56;;;;;;;16.98;6.78;;;5.30;99.90;;;;;;4988639;28;20052;-64
2022/01/15 06:29:22;;;;;;;12.50;6.13;;;5.30;99.90;;;;;;4988796;28;20050;-64
2022/01/15 06:31:48;;;;;;;22.73;6.50;;;5.30;99.90;;;;;;4971519;28;20077;-64
2022/01/15 06:34:14;;;;;;;13.20;7.15;;;5.30;99.90;;;;;;4989104;28;20085;-63
2022/01/15 06:36:46;;;;;;;16.90;7.25;;;5.30;99.90;;;;;;4972652;28;20041;-64
2022/01/15 06:39:12;;;;;;;15.75;6.25;;;5.30;99.90;;;;;;4989932;28;20043;-64
2022/01/15 06:41:39;;;;;;;16.92;5.90;;;5.30;99.90;;;;;;4970713;28;20038;-64
2022/01/15 06:44:05;;;;;;;19.02;6.05;;;5.30;99.90;;;;;;4990233;28;20042;-64
2022/01/15 06:46:31;;;;;;;17.83;5.80;;;5.30;99.90;;;;;;4980315;28;20055;-63
2022/01/15 06:48:56;;;;;;;13.93;5.85;;;5.30;99.90;;;;;;4990062;28;20093;-64
2022/01/15 06:51:24;;;;;;;20.08;6.63;;;5.30;99.90;;;;;;4988070;28;20394;-64
2022/01/15 06:53:50;;;;;;;20.15;6.80;;;5.30;99.90;;;;;;4972456;28;20508;-65
2022/01/15 06:56:15;;;;;;;20.38;7.38;;;5.30;99.90;;;;;;4985699;28;20090;-64
2022/01/15 06:58:42;;;;;;;11.85;6.55;;;5.30;99.90;;;;;;4986725;28;20165;-63
2022/01/15 07:01:09;;;;;;;15.90;7.22;;;5.30;99.90;;;;;;4987035;28;20047;-64
2022/01/15 07:03:34;;;;;;;24.95;7.75;;;5.30;99.90;;;;;;4966660;28;20043;-64
2022/01/15 07:06:00;;;;;;;19.08;7.68;;;5.30;99.90;;;;;;4971652;28;20078;-64
2022/01/15 07:08:26;;;;;;;22.88;7.07;;;5.30;99.90;;;;;;4987539;28;20455;-64
2022/01/15 07:10:51;;;;;;;13.93;7.40;;;5.30;99.90;;;;;;4987007;28;20440;-64
2022/01/15 07:13:20;;;;;;;21.33;7.85;;;5.30;99.90;;;;;;4959968;28;20046;-63
2022/01/15 07:15:46;;;;;;;18.70;7.75;;;5.30;99.90;;;;;;4980499;28;20046;-64
2022/01/15 07:18:12;;;;;;;16.02;7.20;;;5.30;99.90;;;;;;4989698;28;20108;-64
2022/01/15 07:20:38;;;;;;;17.02;6.35;;;5.30;99.90;;;;;;4987692;28;20046;-64
2022/01/15 07:23:04;;;;;;;20.05;7.50;;;5.30;99.90;;;;;;4971906;28;20388;-64
2022/01/15 07:25:30;;;;;;;20.55;7.22;;;5.30;99.90;;;;;;4986300;28;20042;-64
2022/01/15 07:27:56;;;;;;;21.02;7.20;;;5.20;99.90;;;;;;4989588;28;20042;-64
2022/01/15 07:30:22;;;;;;;26.25;7.55;;;5.30;99.90;;;;;;4987369;28;20154;-64
2022/01/15 07:32:48;;;;;;;18.40;7.35;;;5.20;99.90;;;;;;4987462;28;20088;-64
2022/01/15 07:35:14;;;;;;;24.52;7.53;;;5.30;99.90;;;;;;4971187;28;20404;-64
2022/01/15 07:37:40;;;;;;;16.52;7.85;;;5.20;99.90;;;;;;4982684;28;20038;-64
2022/01/15 07:40:07;;;;;;;11.13;6.57;;;5.30;99.90;;;;;;4989068;28;20508;-64
2022/01/15 07:42:36;;;;;;;16.75;7.55;;;5.30;99.90;;;;;;4986335;28;20399;-64
2022/01/15 07:45:08;;;;;;;24.83;7.28;;;5.20;99.90;;;;;;4988622;28;20034;-64
2022/01/15 07:47:34;;;;;;;19.13;7.45;;;5.30;99.90;;;;;;4985480;28;20048;-64
2022/01/15 07:50:00;;;;;;;22.05;8.20;;;5.30;99.90;;;;;;4985838;28;20605;-64
2022/01/15 07:52:28;;;;;;;19.15;8.77;;;5.30;99.90;;;;;;4988095;28;20039;-64
2022/01/15 07:54:53;;;;;;;20.45;8.35;;;5.30;99.90;;;;;;4986550;28;20078;-64
2022/01/15 07:57:19;;;;;;;15.98;8.05;;;5.30;99.90;;;;;;4989861;28;20132;-64
2022/01/15 07:59:45;;;;;;;20.45;8.02;;;5.30;99.90;;;;;;4957603;28;20489;-64
2022/01/15 08:02:10;;;;;;;19.13;7.63;;;5.30;99.90;;;;;;4976139;28;20145;-64
2022/01/15 08:04:36;;;;;;;22.08;7.55;;;5.30;99.90;;;;;;4967130;28;20035;-64
2022/01/15 08:07:02;;;;;;;10.38;6.20;;;5.30;99.90;;;;;;4982709;28;20038;-64
2022/01/15 08:09:28;;;;;;;12.52;6.57;;;5.30;99.90;;;;;;4965491;28;20488;-64
2022/01/15 08:11:54;;;;;;;18.58;6.63;;;5.40;99.90;;;;;;4985668;28;20526;-64
2022/01/15 08:14:20;;;;;;;18.90;6.03;;;5.40;99.90;;;;;;4983359;28;20043;-64
2022/01/15 08:16:45;;;;;;;12.20;5.95;;;5.30;99.90;;;;;;4955317;28;20446;-64
2022/01/15 08:19:11;;;;;;;25.25;6.03;;;5.40;99.90;;;;;;4979675;28;20113;-64
2022/01/15 08:21:37;;;;;;;14.68;4.07;;;5.30;99.90;;;;;;4974179;28;20046;-64
2022/01/15 08:24:03;;;;;;;19.52;4.30;;;5.30;99.90;;;;;;4951681;28;20050;-63
2022/01/15 08:26:28;;;;;;;19.55;4.15;;;5.30;99.90;;;;;;4966817;28;20086;-64
2022/01/15 08:28:54;;;;;;;22.38;3.60;;;5.40;99.90;;;;;;4967886;28;20192;-64
2022/01/15 08:31:20;;;;;;;20.25;3.42;;;5.30;99.90;;;;;;4967201;28;20117;-64
2022/01/15 08:33:46;;;;;;;21.92;3.60;;;5.30;99.90;;;;;;4961369;28;20066;-64
2022/01/15 08:36:11;;;;;;;16.98;3.28;;;5.40;99.90;;;;;;4967615;28;20054;-64
2022/01/15 08:38:37;;;;;;;18.33;3.35;;;5.40;99.90;;;;;;4971314;28;20039;-64
2022/01/15 08:41:03;;;;;;;21.20;4.03;;;5.40;99.90;;;;;;4968343;28;20470;-64
2022/01/15 08:43:30;;;;;;;25.08;8.13;;;5.40;99.90;;;;;;4949421;28;20061;-64
2022/01/15 08:45:56;;;;;;;33.42;11.27;;;5.40;99.90;;;;;;4976704;28;20795;-64
2022/01/15 08:48:21;;;;;;;24.33;6.93;;;5.50;99.90;;;;;;4982297;28;20054;-64
2022/01/15 08:50:48;;;;;;;22.10;8.05;;;5.50;99.90;;;;;;4948893;28;20093;-64
2022/01/15 08:53:16;;;;;;;12.20;4.65;;;5.50;99.90;;;;;;4981905;28;20062;-64
2022/01/15 08:55:46;;;;;;;19.90;5.40;;;5.50;99.90;;;;;;4981064;28;20449;-64
2022/01/15 08:58:19;;;;;;;24.33;9.98;;;5.50;99.90;;;;;;4972072;28;20158;-64
2022/01/15 09:00:45;;;;;;;20.48;6.72;;;5.60;99.90;;;;;;4948882;28;20051;-64
2022/01/15 09:03:11;;;;;;;17.50;6.15;;;5.50;99.90;;;;;;4971731;28;20058;-64
2022/01/15 09:05:37;;;;;;;15.65;6.35;;;5.50;99.90;;;;;;4967676;28;20151;-64
2022/01/15 09:08:05;;;;;;;23.45;8.13;;;5.60;99.90;;;;;;4950533;28;20420;-64
2022/01/15 09:10:30;;;;;;;20.27;7.80;;;5.60;99.90;;;;;;4978716;28;20057;-64
2022/01/15 09:12:56;;;;;;;10.20;5.63;;;5.70;99.90;;;;;;4978515;28;20051;-64
2022/01/15 09:15:23;;;;;;;16.52;5.80;;;5.80;99.90;;;;;;4947423;28;20077;-64
2022/01/15 09:17:48;;;;;;;9.93;5.00;;;5.70;99.90;;;;;;4980706;28;20039;-64
2022/01/15 09:20:15;;;;;;;13.30;4.72;;;5.80;99.90;;;;;;4966134;28;20053;-64
2022/01/15 09:22:40;;;;;;;10.30;5.28;;;5.70;99.90;;;;;;4973716;28;20162;-64
2022/01/15 09:25:07;;;;;;;11.93;4.85;;;5.70;99.90;;;;;;4968983;28;20124;-64
2022/01/15 09:30:17;;;;;;;6.82;3.50;;;5.80;99.90;;;;;;4962905;28;20105;-64
2022/01/15 09:32:44;;;;;;;7.57;2.28;;;5.90;99.90;;;;;;4947631;28;20046;-64
2022/01/15 09:35:12;;;;;;;6.85;2.30;;;5.90;99.90;;;;;;4964457;28;20057;-64
2022/01/15 09:37:38;;;;;;;1.90;1.58;;;5.90;99.90;;;;;;4978076;28;20038;-64
2022/01/15 09:40:05;;;;;;;1.90;1.45;;;5.90;99.90;;;;;;4979185;28;20042;-64
2022/01/15 09:42:31;;;;;;;1.48;1.27;;;5.90;99.90;;;;;;4981362;28;20155;-64
2022/01/15 09:44:57;;;;;;;1.42;1.33;;;5.90;99.90;;;;;;4963368;28;20102;-64
2022/01/15 09:47:23;;;;;;;3.35;1.20;;;5.90;99.90;;;;;;4979156;28;20046;-64
2022/01/15 09:49:52;;;;;;;1.95;1.38;;;5.90;99.90;;;;;;4974372;28;20079;-64
2022/01/15 09:52:18;;;;;;;1.58;1.48;;;6.00;99.90;;;;;;4983222;28;20043;-64
2022/01/15 09:54:45;;;;;;;1.60;1.50;;;6.00;99.90;;;;;;4980352;28;20046;-64
2022/01/15 09:57:10;;;;;;;1.63;1.52;;;6.00;99.90;;;;;;4962609;28;20444;-64
2022/01/15 09:59:36;;;;;;;2.65;2.03;;;5.90;99.90;;;;;;4965981;28;20050;-64
2022/01/15 10:02:04;;;;;;;2.17;1.98;;;5.90;99.90;;;;;;4966747;28;20051;-64
2022/01/15 10:04:32;;;;;;;2.88;2.20;;;6.00;99.90;;;;;;4966026;28;20097;-64
2022/01/15 10:07:07;;;;;;;3.13;2.10;;;5.90;99.90;;;;;;4968853;28;20118;-64
2022/01/15 10:09:33;;;;;;;2.95;2.13;;;6.00;99.90;;;;;;4982722;28;20070;-62
2022/01/15 10:11:58;;;;;;;2.33;2.03;;;6.00;99.90;;;;;;4959275;28;20086;-62
2022/01/15 10:14:26;;;;;;;3.88;2.38;;;6.00;99.90;;;;;;4969152;28;20047;-62
2022/01/15 10:16:52;;;;;;;3.17;2.88;;;6.00;99.90;;;;;;4970105;28;20042;-62
2022/01/15 10:19:44;;;;;;;3.22;2.60;;;6.00;99.90;;;;;;4970334;28;20078;-62
2022/01/15 10:22:12;;;;;;;2.83;2.50;;;6.00;99.90;;;;;;4941941;28;20053;-62
2022/01/15 10:24:40;;;;;;;6.00;2.70;;;6.00;99.90;;;;;;4970792;28;20023;-62
2022/01/15 10:27:21;;;;;;;2.80;2.58;;;6.10;99.90;;;;;;4967598;28;20087;-61
2022/01/15 10:29:59;;;;;;;4.85;2.90;;;6.10;99.90;;;;;;4978031;28;20469;-61
2022/01/15 10:32:29;;;;;;;3.35;2.92;;;6.10;99.90;;;;;;4953491;28;20540;-62
2022/01/15 10:34:55;;;;;;;;;;;6.10;99.90;;;;;;4969076;28;20387;-62
2022/01/15 10:37:24;;;;;;;4.95;2.70;;;6.10;99.90;;;;;;4970550;28;20308;-61
2022/01/15 10:39:55;;;;;;;5.88;4.03;;;6.20;99.90;;;;;;4971623;28;20409;-62
2022/01/15 10:42:23;;;;;;;8.80;4.50;;;6.20;99.90;;;;;;4984035;28;20046;-62
2022/01/15 10:44:54;;;;;;;6.43;4.57;;;6.20;99.90;;;;;;4984078;28;20092;-61
2022/01/15 10:47:23;;;;;;;4.75;4.00;;;6.20;99.90;;;;;;4965127;28;20057;-62
2022/01/15 10:49:50;;;;;;;7.90;4.95;;;6.20;99.90;;;;;;4980534;28;20050;-62
2022/01/15 10:52:18;;;;;;;10.35;5.38;;;6.20;99.90;;;;;;4982839;28;20065;-61
2022/01/15 10:55:10;;;;;;;5.28;4.75;;;6.30;99.90;;;;;;4918285;28;20399;-62
2022/01/15 10:57:41;;;;;;;7.03;5.05;;;6.30;99.90;;;;;;4950143;28;20110;-61
2022/01/15 11:00:10;;;;;;;6.85;5.03;;;6.30;99.90;;;;;;4948779;28;20130;-62
2022/01/15 11:02:40;;;;;;;7.88;5.45;;;6.30;99.90;;;;;;4950115;28;20043;-62
2022/01/15 11:05:28;;;;;;;9.45;5.88;;;6.30;99.90;;;;;;4948561;28;20039;-62
2022/01/15 11:08:06;;;;;;;8.90;6.07;;;6.40;99.90;;;;;;4949698;28;20051;-62
2022/01/15 11:10:43;;;;;;;9.73;6.18;;;6.30;99.90;;;;;;4955553;28;20086;-61
2022/01/15 11:13:11;;;;;;;8.98;6.40;;;6.30;99.90;;;;;;4932274;28;20058;-62
2022/01/15 11:15:39;;;;;;;9.98;6.13;;;6.30;99.90;;;;;;4950231;28;20038;-62
2022/01/15 11:18:05;;;;;;;7.75;6.38;;;6.30;99.90;;;;;;4949570;28;20043;-62
2022/01/15 11:20:33;;;;;;;9.38;5.75;;;6.40;99.90;;;;;;4959975;28;20326;-62
2022/01/15 11:23:01;;;;;;;12.00;5.18;;;6.30;99.90;;;;;;4952951;28;20125;-62
2022/01/15 11:25:28;;;;;;;10.02;5.50;;;6.40;99.90;;;;;;4966740;28;20051;-62
2022/01/15 11:27:56;;;;;;;6.47;5.40;;;6.40;99.90;;;;;;4964123;28;20102;-62
2022/01/15 11:30:22;;;;;;;8.55;5.10;;;6.40;99.90;;;;;;4954169;28;20069;-62
2022/01/15 11:32:52;;;;;;;6.43;4.35;;;6.40;99.90;;;;;;4951050;28;20054;-62
2022/01/15 11:35:19;;;;;;;4.95;3.85;;;6.40;99.90;;;;;;4956469;28;20050;-62
2022/01/15 11:37:52;;;;;;;3.25;2.75;;;6.40;99.90;;;;;;4961376;28;20085;-61
2022/01/15 11:40:38;;;;;;;3.72;3.35;;;6.40;99.90;;;;;;4959335;28;20441;-61
2022/01/15 11:43:27;;;;;;;7.43;2.47;;;6.30;99.90;;;;;;4951843;28;20050;-62
2022/01/15 11:45:58;;;;;;;8.48;3.10;;;6.30;99.90;;;;;;4927833;29;20070;-62
2022/01/15 11:48:26;;;;;;;3.35;3.05;;;6.20;99.90;;;;;;4946644;28;20054;-62
2022/01/15 11:51:13;;;;;;;3.45;2.53;;;6.30;99.90;;;;;;4949564;28;20126;-64
2022/01/15 11:53:59;;;;;;;3.15;2.85;;;6.30;99.90;;;;;;4945521;28;20123;-63
2022/01/15 11:56:35;;;;;;;4.38;3.95;;;6.20;99.90;;;;;;4959073;28;20075;-64
2022/01/15 11:59:27;;;;;;;7.35;6.65;;;6.20;99.90;;;;;;4940392;28;20051;-64
2022/01/15 12:01:59;;;;;;;9.77;6.35;;;6.20;99.90;;;;;;4944098;28;20051;-64
2022/01/15 12:04:37;;;;;;;10.95;8.15;;;6.20;99.90;;;;;;4947413;28;20067;-64
2022/01/15 12:07:05;;;;;;;13.38;9.30;;;6.10;99.90;;;;;;4947991;28;20047;-64
2022/01/15 12:09:45;;;;;;;18.98;12.45;;;6.00;99.90;;;;;;4920410;28;20129;-64
2022/01/15 12:12:38;;;;;;;18.95;12.52;;;6.00;99.90;;;;;;4963578;28;20062;-64
2022/01/15 12:15:06;;;;;;;18.77;14.35;;;6.00;99.90;;;;;;4937223;28;20491;-64
2022/01/15 12:17:46;;;;;;;21.73;14.02;;;6.10;99.90;;;;;;4951972;28;20055;-64
2022/01/15 12:20:18;;;;;;;22.63;17.33;;;6.10;99.90;;;;;;4942332;28;20529;-64
2022/01/15 12:22:46;;;;;;;25.92;18.40;;;6.10;99.90;;;;;;4943562;28;20075;-64
2022/01/15 12:25:34;;;;;;;26.65;17.45;;;6.10;99.90;;;;;;4953581;28;20118;-64
2022/01/15 12:28:09;;;;;;;27.85;19.90;;;6.00;99.90;;;;;;4948018;28;20133;-64
2022/01/15 12:30:40;;;;;;;29.92;23.75;;;6.00;99.90;;;;;;4955342;28;20046;-63
2022/01/15 12:33:12;;;;;;;29.60;23.27;;;6.00;99.90;;;;;;4951026;28;20386;-64
2022/01/15 12:35:40;;;;;;;29.33;23.38;;;6.10;99.90;;;;;;4929274;29;20054;-64
2022/01/15 12:38:21;;;;;;;28.92;18.77;;;6.10;99.90;;;;;;4948297;28;20398;-64
2022/01/15 12:40:54;;;;;;;26.38;19.23;;;6.10;99.90;;;;;;4945500;28;20051;-63
2022/01/15 12:43:28;;;;;;;21.83;17.33;;;6.10;99.90;;;;;;4961266;28;20038;-64
2022/01/15 12:46:02;;;;;;;25.17;17.08;;;6.00;99.90;;;;;;4955303;28;20043;-64
2022/01/15 12:48:31;;;;;;;27.02;17.77;;;6.00;99.90;;;;;;4948706;28;20514;-64
2022/01/15 12:51:05;;;;;;;18.83;14.40;;;6.00;99.90;;;;;;4953559;28;20043;-64
2022/01/15 12:53:36;;;;;;;25.45;16.05;;;6.00;99.90;;;;;;4959070;28;20042;-63
2022/01/15 12:56:10;;;;;;;35.47;24.33;;;6.00;99.90;;;;;;4952776;28;20668;-63
2022/01/15 12:58:36;;;;;;;35.00;23.77;;;5.90;99.90;;;;;;4943182;28;20050;-64
2022/01/15 13:01:03;;;;;;;38.47;25.88;;;5.90;99.90;;;;;;4953776;28;20114;-64
2022/01/15 13:03:30;;;;;;;37.25;24.15;;;5.90;99.90;;;;;;4956575;28;20740;-64
2022/01/15 13:05:58;;;;;;;40.03;27.25;;;5.90;99.90;;;;;;4961972;28;20046;-64
2022/01/15 13:08:37;;;;;;;31.75;22.13;;;5.90;99.90;;;;;;4963841;28;20047;-64
2022/01/15 13:13:51;;;;;;;23.77;14.13;;;5.90;99.90;;;;;;4958228;28;20414;-64
2022/01/15 13:16:23;;;;;;;23.83;17.20;;;5.80;99.90;;;;;;4952414;28;20105;-64
2022/01/15 13:18:55;;;;;;;25.77;16.75;;;5.80;99.90;;;;;;4954014;28;20090;-64
2022/01/15 13:21:28;;;;;;;24.58;16.17;;;5.80;99.90;;;;;;4962478;28;20061;-62
2022/01/15 13:24:08;;;;;;;20.08;15.23;;;5.80;99.90;;;;;;4961424;28;20051;-61
2022/01/15 13:26:39;;;;;;;22.10;17.05;;;5.80;99.90;;;;;;4939524;28;20070;-64